createdAt,value
2023-04-18T00:04:26.052Z,16.83
2023-04-18T00:09:28.229Z,16.92
2023-04-18T00:14:30.653Z,17.55
2023-04-18T00:19:34.301Z,15.73
2023-04-18T00:24:36.464Z,16.40
2023-04-18T00:29:40.645Z,16.52
2023-04-18T00:34:42.748Z,17.83
2023-04-18T00:39:44.797Z,17.90
2023-04-18T00:44:46.895Z,16.65
2023-04-18T00:49:49.645Z,17.33
2023-04-18T00:54:52.113Z,17.80
2023-04-18T00:59:54.922Z,18.63
2023-04-18T01:04:58.678Z,15.18
2023-04-18T01:10:02.204Z,16.55
2023-04-18T01:15:05.736Z,16.95
2023-04-18T01:20:08.988Z,19.83
2023-04-18T01:25:11.691Z,19.88
2023-04-18T01:30:14.162Z,19.08
2023-04-18T01:35:17.521Z,20.33
2023-04-18T01:40:19.645Z,23.08
2023-04-18T01:45:22.457Z,20.80
2023-04-18T01:50:24.718Z,20.48
2023-04-18T01:55:26.931Z,17.35
2023-04-18T02:00:30.168Z,19.17
2023-04-18T02:05:32.176Z,21.27
2023-04-18T02:10:34.834Z,15.35
2023-04-18T02:15:37.256Z,18.50
2023-04-18T02:20:40.677Z,19.92
2023-04-18T02:25:42.892Z,19.52
2023-04-18T02:30:45.096Z,19.77
2023-04-18T02:35:47.214Z,18.98
2023-04-18T02:40:51.377Z,18.15
2023-04-18T02:45:53.522Z,16.55
2023-04-18T02:51:05.044Z,18.38
2023-04-18T02:56:09.613Z,17.45
2023-04-18T03:01:31.784Z,14.40
2023-04-18T03:06:42.347Z,16.50
2023-04-18T03:11:44.516Z,14.75
2023-04-18T03:16:48.426Z,15.05
2023-04-18T03:21:55.105Z,15.38
2023-04-18T03:26:59.792Z,17.30
2023-04-18T03:32:02.580Z,17.13
2023-04-18T03:37:04.813Z,16.90
2023-04-18T03:42:12.168Z,16.20
2023-04-18T03:47:22.695Z,17.33
2023-04-18T03:52:30.950Z,15.10
2023-04-18T03:57:33.145Z,17.55
2023-04-18T04:02:39.999Z,15.63
2023-04-18T04:07:42.616Z,18.00
2023-04-18T04:12:45.304Z,16.23
2023-04-18T04:17:47.734Z,16.25
2023-04-18T04:22:55.307Z,16.20
2023-04-18T04:27:57.959Z,15.07
2023-04-18T04:33:01.982Z,14.73
2023-04-18T04:38:04.364Z,15.95
2023-04-18T04:43:15.743Z,15.57
2023-04-18T04:48:21.895Z,15.63
2023-04-18T04:53:25.566Z,14.25
2023-04-18T04:58:28.698Z,15.55
2023-04-18T05:03:33.833Z,13.85
2023-04-18T05:08:36.322Z,13.18
2023-04-18T05:13:39.601Z,12.73
2023-04-18T05:18:42.088Z,15.38
2023-04-18T05:23:44.228Z,14.38
2023-04-18T05:28:46.328Z,14.65
2023-04-18T05:33:48.426Z,17.52
2023-04-18T05:38:50.940Z,16.35
2023-04-18T05:44:04.383Z,16.17
2023-04-18T05:49:07.316Z,15.63
2023-04-18T05:54:09.516Z,15.55
2023-04-18T05:59:11.664Z,16.27
2023-04-18T06:04:14.699Z,14.70
2023-04-18T06:09:17.120Z,16.50
2023-04-18T06:14:19.164Z,16.25
2023-04-18T06:19:21.456Z,17.35
2023-04-18T06:24:24.104Z,17.45
2023-04-18T06:29:30.329Z,17.13
2023-04-18T06:34:32.470Z,18.25
2023-04-18T06:39:34.506Z,18.02
2023-04-18T06:44:36.746Z,17.90
2023-04-18T06:49:38.989Z,22.85
2023-04-18T06:54:41.239Z,21.00
2023-04-18T06:59:43.373Z,23.58
2023-04-18T07:04:45.564Z,23.27
2023-04-18T07:09:48.555Z,23.25
2023-04-18T07:14:51.769Z,23.63
2023-04-18T07:19:53.813Z,25.40
2023-04-18T07:24:56.004Z,23.75
2023-04-18T07:29:58.408Z,26.30
2023-04-18T07:35:00.494Z,26.75
2023-04-18T07:40:02.572Z,25.77
2023-04-18T07:45:05.138Z,26.77
2023-04-18T07:50:08.326Z,27.25
2023-04-18T07:55:10.710Z,28.10
2023-04-18T08:00:13.502Z,30.23
2023-04-18T08:05:16.094Z,28.10
2023-04-18T08:10:18.226Z,27.60
2023-04-18T08:15:20.631Z,27.77
2023-04-18T08:20:23.438Z,25.23
2023-04-18T08:25:25.778Z,26.27
2023-04-18T08:30:28.109Z,23.77
2023-04-18T08:35:30.247Z,23.67
2023-04-18T08:40:32.467Z,23.10
2023-04-18T08:45:34.763Z,23.50
2023-04-18T08:50:36.873Z,23.38
2023-04-18T08:55:39.109Z,19.27
2023-04-18T09:00:41.744Z,21.33
2023-04-18T09:05:43.846Z,21.52
2023-04-18T09:10:46.893Z,20.40
2023-04-18T09:15:56.180Z,22.13
2023-04-18T09:21:18.626Z,19.63
2023-04-18T09:26:34.846Z,20.65
2023-04-18T09:32:00.957Z,17.70
2023-04-18T09:37:11.293Z,20.75
2023-04-18T09:42:14.038Z,18.25
2023-04-18T09:47:16.473Z,17.85
2023-04-18T09:52:20.608Z,17.35
2023-04-18T09:57:26.299Z,16.83
2023-04-18T10:02:33.114Z,17.52
2023-04-18T10:07:36.215Z,20.25
2023-04-18T10:12:40.172Z,19.25
2023-04-18T10:18:03.476Z,18.80
2023-04-18T10:23:43.292Z,16.42
2023-04-18T10:28:53.525Z,16.38
2023-04-18T10:39:23.683Z,14.82
2023-04-18T10:44:27.082Z,17.00
2023-04-18T10:49:32.660Z,16.40
2023-04-18T10:54:41.819Z,17.05
2023-04-18T10:59:51.771Z,17.65
2023-04-18T11:04:55.451Z,17.40
2023-04-18T11:09:57.634Z,15.60
2023-04-18T11:15:03.641Z,15.20
2023-04-18T11:20:17.106Z,16.35
2023-04-18T11:25:23.692Z,15.45
2023-04-18T11:30:25.842Z,12.93
2023-04-18T11:35:28.081Z,16.25
2023-04-18T11:40:30.520Z,15.15
2023-04-18T11:45:32.731Z,14.35
2023-04-18T11:50:37.243Z,17.23
2023-04-18T11:55:39.424Z,14.27
2023-04-18T12:00:42.186Z,14.82
2023-04-18T12:05:44.790Z,12.65
2023-04-18T12:10:51.767Z,14.27
2023-04-18T12:15:54.542Z,13.10
2023-04-18T12:20:58.636Z,15.32
2023-04-18T12:26:07.409Z,12.85
2023-04-18T12:31:09.549Z,13.23
2023-04-18T12:36:11.747Z,15.30
2023-04-18T12:41:13.975Z,13.07
2023-04-18T12:46:16.198Z,13.10
2023-04-18T12:51:18.292Z,12.38
2023-04-18T12:56:21.066Z,11.32
2023-04-18T13:01:23.259Z,12.80
2023-04-18T13:06:25.981Z,12.32
2023-04-18T13:11:29.025Z,11.13
2023-04-18T13:16:31.432Z,11.93
2023-04-18T13:21:33.645Z,11.43
2023-04-18T13:26:37.556Z,11.98
2023-04-18T13:31:39.713Z,13.93
2023-04-18T13:36:42.141Z,12.43
2023-04-18T13:41:44.869Z,13.02
2023-04-18T13:46:46.967Z,12.48
2023-04-18T13:51:50.575Z,10.82
2023-04-18T13:57:02.045Z,12.05
2023-04-18T14:02:04.395Z,10.93
2023-04-18T14:07:08.124Z,9.30
2023-04-18T14:12:11.506Z,11.05
2023-04-18T14:17:13.749Z,13.60
2023-04-18T14:22:15.864Z,11.52
2023-04-18T14:27:18.088Z,11.52
2023-04-18T14:32:20.310Z,10.55
2023-04-18T14:37:22.431Z,9.20
2023-04-18T14:42:24.699Z,11.48
2023-04-18T14:47:31.699Z,9.95
2023-04-18T14:52:33.891Z,11.05
2023-04-18T14:57:37.371Z,10.25
2023-04-18T15:02:39.974Z,11.43
2023-04-18T15:07:43.557Z,9.90
2023-04-18T15:12:48.488Z,10.48
2023-04-18T15:17:50.956Z,8.45
2023-04-18T15:22:53.065Z,9.10
2023-04-18T15:27:55.190Z,10.95
2023-04-18T15:32:57.368Z,10.88
2023-04-18T15:37:59.763Z,9.38
2023-04-18T15:43:02.034Z,10.05
2023-04-18T15:48:04.347Z,9.70
2023-04-18T15:53:06.639Z,9.63
2023-04-18T15:58:08.740Z,9.10
2023-04-18T16:03:11.095Z,9.25
2023-04-18T16:08:13.224Z,10.55
2023-04-18T16:13:15.425Z,9.63
2023-04-18T16:18:17.531Z,9.40
2023-04-18T16:23:20.608Z,8.40
2023-04-18T16:28:22.723Z,7.82
2023-04-18T16:33:26.153Z,8.77
2023-04-18T16:38:28.605Z,8.40
2023-04-18T16:43:31.180Z,9.20
2023-04-18T16:48:33.513Z,8.73
2023-04-18T16:53:36.099Z,9.55
2023-04-18T16:58:38.403Z,10.20
2023-04-18T17:03:41.037Z,9.07
2023-04-18T17:08:43.172Z,10.73
2023-04-18T17:13:45.389Z,10.73
2023-04-18T17:18:47.469Z,10.77
2023-04-18T17:23:49.505Z,10.50
2023-04-18T17:28:51.550Z,10.60
2023-04-18T17:33:54.599Z,11.23
2023-04-18T17:38:58.247Z,11.32
2023-04-18T17:44:00.587Z,12.00
2023-04-18T17:49:02.799Z,11.18
2023-04-18T17:54:05.508Z,10.32
2023-04-18T17:59:07.599Z,9.10
2023-04-18T18:04:09.778Z,10.13
2023-04-18T18:09:12.796Z,9.52
2023-04-18T18:14:15.770Z,8.88
2023-04-18T18:19:17.842Z,8.65
2023-04-18T18:24:20.095Z,8.38
2023-04-18T18:29:22.447Z,8.10
2023-04-18T18:34:24.552Z,6.80
2023-04-18T18:39:26.598Z,9.30
2023-04-18T18:44:28.803Z,8.18
2023-04-18T18:49:30.965Z,7.75
2023-04-18T18:54:33.124Z,6.88
2023-04-18T18:59:35.211Z,8.23
2023-04-18T19:04:37.449Z,6.78
2023-04-18T19:09:39.584Z,6.90
2023-04-18T19:14:42.535Z,6.68
2023-04-18T19:19:44.627Z,7.57
2023-04-18T19:24:46.989Z,8.35
2023-04-18T19:29:49.250Z,8.15
2023-04-18T19:34:51.537Z,7.95
2023-04-18T19:39:53.631Z,6.78
2023-04-18T19:44:56.620Z,8.38
2023-04-18T19:49:58.779Z,7.90
2023-04-18T19:55:00.804Z,6.88
2023-04-18T20:00:03.591Z,9.18
2023-04-18T20:05:14.636Z,6.88
2023-04-18T20:10:23.352Z,7.97
2023-04-18T20:15:25.501Z,7.97
2023-04-18T20:20:27.602Z,9.10
2023-04-18T20:25:29.882Z,6.32
2023-04-18T20:30:32.211Z,6.47
2023-04-18T20:35:34.348Z,8.07
2023-04-18T20:40:37.532Z,9.95
2023-04-18T20:45:42.949Z,6.97
2023-04-18T20:50:51.012Z,7.07
2023-04-18T20:55:53.250Z,6.88
2023-04-18T21:00:55.588Z,6.50
2023-04-18T21:05:57.883Z,6.55
2023-04-18T21:10:59.959Z,8.70
2023-04-18T21:16:03.431Z,6.65
2023-04-18T21:21:05.782Z,10.52
2023-04-18T21:26:08.103Z,7.60
2023-04-18T21:31:10.217Z,6.78
2023-04-18T21:36:12.281Z,6.78
2023-04-18T21:41:16.451Z,7.43
2023-04-18T21:46:19.355Z,6.80
2023-04-18T21:51:21.523Z,6.95
2023-04-18T21:56:23.741Z,8.00
2023-04-18T22:01:25.874Z,9.07
2023-04-18T22:06:27.918Z,7.95
2023-04-18T22:11:30.368Z,11.05
2023-04-18T22:16:33.416Z,5.93
2023-04-18T22:21:35.564Z,7.70
2023-04-18T22:26:37.683Z,7.10
2023-04-18T22:31:39.827Z,10.32
2023-04-18T22:36:43.588Z,8.82
2023-04-18T22:41:45.668Z,7.57
2023-04-18T22:46:48.271Z,8.02
2023-04-18T22:51:54.499Z,9.00
2023-04-18T22:56:56.777Z,7.03
2023-04-18T23:01:58.985Z,8.23
2023-04-18T23:07:01.380Z,9.60
2023-04-18T23:12:03.749Z,10.23
2023-04-18T23:17:05.979Z,10.40
2023-04-18T23:22:08.120Z,9.30
2023-04-18T23:27:10.457Z,9.35
2023-04-18T23:32:12.581Z,10.25
2023-04-18T23:37:14.614Z,10.38
2023-04-18T23:42:16.689Z,10.95
2023-04-18T23:47:19.165Z,11.60
2023-04-18T23:52:22.351Z,11.85
2023-04-18T23:57:24.443Z,11.25
